Terminal Aerodrome Forecast
Issued by NWS

Home | Current Version | Previous Version | Text Only | Print | Product List | Glossary On
Versions: 1 2 3 4 5 6 7 8 9 10 11 12 13 14 15 16 17 18 19 20 21 22 23 24
000
FTUS45 KBOI 221120
TAFBKE
TAF
KBKE 221120Z 2212/2312 11011KT P6SM BKN070
     FM221600 10020G30KT P6SM VCSH SCT025 OVC040
     FM221800 10015G25KT 2SM -SN BLSN SCT015 OVC025
     FM222200 11013KT 4SM -SN BR SCT010 OVC020
     FM230000 11008KT 6SM BR VCSH SCT020 OVC035
     FM230400 VRB05KT 6SM BR SCT035 BKN090=

USA.gov is the U.S. government's official web portal to all federal, state and local government web resources and services.